Shinsei Maru — JD2188 — position and weather

sailwx.info

Track history (hours):
 
Tides and Currents Weather Stations Pressure Air Temp Water Temp Dewpoint Dewpoint Depression Visibility Wind Speed Wind Dir Waves Ship Positions

Shinsei Maru

Last reported at 2014-Oct-24 04:30 UTC. Time now 2014-Oct-24 07:55 UTC.
Position N 34°03' E 135°02'.

Length 104 m; draft 6.5 m.

Type: Tanker. MMSI: 431301775.

Date/timePositionNaut miles runAvg speedWind from/ knotsBaromVisibWave heightAir tempDewpointWater temp
2014-Oct-24 04:30N 34°03' E 135°02'6 0.8
2014-Oct-23 21:11N 34°07' E 135°07'2 2.8
2014-Oct-23 20:31N 34°09' E 135°07'0 0.0
2014-Oct-23 19:22N 34°09' E 135°07'0 0.0
2014-Oct-23 18:28N 34°09' E 135°07'0 0.0
2014-Oct-23 17:28N 34°09' E 135°07'0 0.0
2014-Oct-23 16:31N 34°09' E 135°07'0 0.0
2014-Oct-23 15:32N 34°09' E 135°07'0 0.0
2014-Oct-23 14:32N 34°09' E 135°07'1 1.5
2014-Oct-23 13:33N 34°08' E 135°07'0 0.0
2014-Oct-23 02:05N 34°07' E 135°07'5 9.8
2014-Oct-23 01:33N 34°04' E 135°03'23411.5
2014-Oct-22 05:11N 35°03' E 139°37'914.1
2014-Oct-22 04:33N 35°10' E 139°44'1211.7
2014-Oct-22 03:33N 35°21' E 139°42'19 0.7
2014-Oct-21 01:05N 35°32' E 140°02'0 0.3
2014-Oct-21 00:33N 35°32' E 140°02'1212.6
2014-Oct-20 23:33N 35°26' E 139°48'1111.3
2014-Oct-20 22:33N 35°14' E 139°47'  
2014-Oct-18 09:17N 35°04' E 139°43'1014.5
2014-Oct-18 08:33N 35°14' E 139°46'1212.4
2014-Oct-18 07:33N 35°26' E 139°44'5 4.9
2014-Oct-18 06:28N 35°31' E 139°46'0 0.1
2014-Oct-18 05:33N 35°31' E 139°46'0 0.0
2014-Oct-18 04:31N 35°31' E 139°46'0 0.0
2014-Oct-18 03:28N 35°31' E 139°46'0 0.0
2014-Oct-18 02:34N 35°31' E 139°46'0 0.0
2014-Oct-18 01:34N 35°31' E 139°46'0 0.0
2014-Oct-18 00:28N 35°31' E 139°46'0 0.0
2014-Oct-17 23:31N 35°31' E 139°46'0 0.0
2014-Oct-17 22:31N 35°31' E 139°46'0 0.4
2014-Oct-17 21:33N 35°31' E 139°46'1 0.7
2014-Oct-17 20:31N 35°30' E 139°45'0 0.0
2014-Oct-17 19:33N 35°30' E 139°45'0 0.0
2014-Oct-17 18:33N 35°30' E 139°45'0 0.0
2014-Oct-17 17:33N 35°30' E 139°45'0 0.0
2014-Oct-17 16:33N 35°30' E 139°45'0 0.0
2014-Oct-17 15:33N 35°30' E 139°45'0 0.0
2014-Oct-17 14:33N 35°30' E 139°45'0 0.0
2014-Oct-17 13:33N 35°30' E 139°45'0 0.0
2014-Oct-17 12:33N 35°30' E 139°45'0 0.0
2014-Oct-17 11:33N 35°30' E 139°45'0 0.0
2014-Oct-17 10:33N 35°30' E 139°45'0 0.0
2014-Oct-17 09:33N 35°30' E 139°45'0 0.0
2014-Oct-17 08:33N 35°30' E 139°45'0 0.0
2014-Oct-17 07:33N 35°30' E 139°45'0 0.0
2014-Oct-17 06:33N 35°30' E 139°45'0 0.0
2014-Oct-17 05:33N 35°30' E 139°45'0 0.0
2014-Oct-17 04:31N 35°30' E 139°45'0 0.0
2014-Oct-17 03:31N 35°30' E 139°45'0 0.0
2014-Oct-17 02:31N 35°30' E 139°45'0 0.0
2014-Oct-17 01:31N 35°30' E 139°45'0 0.0
2014-Oct-17 00:31N 35°30' E 139°45'3 2.8
2014-Oct-16 23:33N 35°29' E 139°42'10 9.6
2014-Oct-16 22:33N 35°20' E 139°44'  
2014-Oct-14 11:32N 35°07' E 139°44'1212.3
2014-Oct-14 10:33N 35°19' E 139°43'1312.6
2014-Oct-14 09:33N 35°30' E 139°51'  
Track history (hours):
 
Tides and Currents Weather Stations Pressure Air Temp Water Temp Dewpoint Dewpoint Depression Visibility Wind Speed Wind Dir Waves Ship Positions

Shinsei Maru

Last reported at 2014-Oct-24 04:30 UTC. Time now 2014-Oct-24 07:55 UTC.
Position N 34°03' E 135°02'.

Length 104 m; draft 6.5 m.

Type: Tanker. MMSI: 431301775.

Date/timePositionNaut miles runAvg speedWind from/ knotsBaromVisibWave heightAir tempDewpointWater temp
2014-Oct-24 04:30N 34°03' E 135°02'6 0.8
2014-Oct-23 21:11N 34°07' E 135°07'2 2.8
2014-Oct-23 20:31N 34°09' E 135°07'0 0.0
2014-Oct-23 19:22N 34°09' E 135°07'0 0.0
2014-Oct-23 18:28N 34°09' E 135°07'0 0.0
2014-Oct-23 17:28N 34°09' E 135°07'0 0.0
2014-Oct-23 16:31N 34°09' E 135°07'0 0.0
2014-Oct-23 15:32N 34°09' E 135°07'0 0.0
2014-Oct-23 14:32N 34°09' E 135°07'1 1.5
2014-Oct-23 13:33N 34°08' E 135°07'0 0.0
2014-Oct-23 02:05N 34°07' E 135°07'5 9.8
2014-Oct-23 01:33N 34°04' E 135°03'23411.5
2014-Oct-22 05:11N 35°03' E 139°37'914.1
2014-Oct-22 04:33N 35°10' E 139°44'1211.7
2014-Oct-22 03:33N 35°21' E 139°42'19 0.7
2014-Oct-21 01:05N 35°32' E 140°02'0 0.3
2014-Oct-21 00:33N 35°32' E 140°02'1212.6
2014-Oct-20 23:33N 35°26' E 139°48'1111.3
2014-Oct-20 22:33N 35°14' E 139°47'  
2014-Oct-18 09:17N 35°04' E 139°43'1014.5
2014-Oct-18 08:33N 35°14' E 139°46'1212.4
2014-Oct-18 07:33N 35°26' E 139°44'5 4.9
2014-Oct-18 06:28N 35°31' E 139°46'0 0.1
2014-Oct-18 05:33N 35°31' E 139°46'0 0.0
2014-Oct-18 04:31N 35°31' E 139°46'0 0.0
2014-Oct-18 03:28N 35°31' E 139°46'0 0.0
2014-Oct-18 02:34N 35°31' E 139°46'0 0.0
2014-Oct-18 01:34N 35°31' E 139°46'0 0.0
2014-Oct-18 00:28N 35°31' E 139°46'0 0.0
2014-Oct-17 23:31N 35°31' E 139°46'0 0.0
2014-Oct-17 22:31N 35°31' E 139°46'0 0.4
2014-Oct-17 21:33N 35°31' E 139°46'1 0.7
2014-Oct-17 20:31N 35°30' E 139°45'0 0.0
2014-Oct-17 19:33N 35°30' E 139°45'0 0.0
2014-Oct-17 18:33N 35°30' E 139°45'0 0.0
2014-Oct-17 17:33N 35°30' E 139°45'0 0.0
2014-Oct-17 16:33N 35°30' E 139°45'0 0.0
2014-Oct-17 15:33N 35°30' E 139°45'0 0.0
2014-Oct-17 14:33N 35°30' E 139°45'0 0.0
2014-Oct-17 13:33N 35°30' E 139°45'0 0.0
2014-Oct-17 12:33N 35°30' E 139°45'0 0.0
2014-Oct-17 11:33N 35°30' E 139°45'0 0.0
2014-Oct-17 10:33N 35°30' E 139°45'0 0.0
2014-Oct-17 09:33N 35°30' E 139°45'0 0.0
2014-Oct-17 08:33N 35°30' E 139°45'0 0.0
2014-Oct-17 07:33N 35°30' E 139°45'0 0.0
2014-Oct-17 06:33N 35°30' E 139°45'0 0.0
2014-Oct-17 05:33N 35°30' E 139°45'0 0.0
2014-Oct-17 04:31N 35°30' E 139°45'0 0.0
2014-Oct-17 03:31N 35°30' E 139°45'0 0.0
2014-Oct-17 02:31N 35°30' E 139°45'0 0.0
2014-Oct-17 01:31N 35°30' E 139°45'0 0.0
2014-Oct-17 00:31N 35°30' E 139°45'3 2.8
2014-Oct-16 23:33N 35°29' E 139°42'10 9.6
2014-Oct-16 22:33N 35°20' E 139°44'  
2014-Oct-14 11:32N 35°07' E 139°44'1212.3
2014-Oct-14 10:33N 35°19' E 139°43'1312.6
2014-Oct-14 09:33N 35°30' E 139°51'  

Dump ship's entire track history